sensor_id;sensor_type;location;lat;lon;timestamp;temperature;humidity
4687;DHT22;2357;47.316;-1.348;2023-07-30T00:01:32;18.20;99.90
4687;DHT22;2357;47.316;-1.348;2023-07-30T00:03:58;18.10;99.90
4687;DHT22;2357;47.316;-1.348;2023-07-30T00:06:24;18.00;99.90
4687;DHT22;2357;47.316;-1.348;2023-07-30T00:08:50;18.00;99.90
4687;DHT22;2357;47.316;-1.348;2023-07-30T00:11:16;18.00;99.90
4687;DHT22;2357;47.316;-1.348;2023-07-30T00:13:42;17.90;99.90
4687;DHT22;2357;47.316;-1.348;2023-07-30T00:16:07;17.90;99.90
4687;DHT22;2357;47.316;-1.348;2023-07-30T00:18:33;17.90;99.90
4687;DHT22;2357;47.316;-1.348;2023-07-30T00:20:59;17.90;99.90
4687;DHT22;2357;47.316;-1.348;2023-07-30T00:23:24;17.80;99.90
4687;DHT22;2357;47.316;-1.348;2023-07-30T00:25:50;17.90;99.90
4687;DHT22;2357;47.316;-1.348;2023-07-30T00:28:16;17.90;99.90
4687;DHT22;2357;47.316;-1.348;2023-07-30T00:30:42;17.80;99.90
4687;DHT22;2357;47.316;-1.348;2023-07-30T00:33:07;17.80;99.90
4687;DHT22;2357;47.316;-1.348;2023-07-30T00:35:33;17.80;99.90
4687;DHT22;2357;47.316;-1.348;2023-07-30T00:37:59;17.70;99.90
4687;DHT22;2357;47.316;-1.348;2023-07-30T00:40:24;17.60;99.90
4687;DHT22;2357;47.316;-1.348;2023-07-30T00:42:50;17.60;99.90
4687;DHT22;2357;47.316;-1.348;2023-07-30T00:45:15;17.60;99.90
4687;DHT22;2357;47.316;-1.348;2023-07-30T00:47:41;17.60;99.90
4687;DHT22;2357;47.316;-1.348;2023-07-30T00:50:08;17.60;99.90
4687;DHT22;2357;47.316;-1.348;2023-07-30T00:52:35;17.60;99.90
4687;DHT22;2357;47.316;-1.348;2023-07-30T00:55:02;17.50;99.90
4687;DHT22;2357;47.316;-1.348;2023-07-30T00:57:28;17.50;99.90
4687;DHT22;2357;47.316;-1.348;2023-07-30T00:59:56;17.50;99.90
4687;DHT22;2357;47.316;-1.348;2023-07-30T01:02:22;17.50;99.90
4687;DHT22;2357;47.316;-1.348;2023-07-30T01:04:48;17.50;99.90
4687;DHT22;2357;47.316;-1.348;2023-07-30T01:07:13;17.50;99.90
4687;DHT22;2357;47.316;-1.348;2023-07-30T01:09:39;17.50;99.90
4687;DHT22;2357;47.316;-1.348;2023-07-30T01:12:06;17.50;99.90
4687;DHT22;2357;47.316;-1.348;2023-07-30T01:14:32;17.50;99.90
4687;DHT22;2357;47.316;-1.348;2023-07-30T01:16:58;17.60;99.90
4687;DHT22;2357;47.316;-1.348;2023-07-30T01:19:24;17.70;99.90
4687;DHT22;2357;47.316;-1.348;2023-07-30T01:21:49;17.70;99.90
4687;DHT22;2357;47.316;-1.348;2023-07-30T01:24:15;17.70;99.90
4687;DHT22;2357;47.316;-1.348;2023-07-30T01:26:46;17.80;99.90
4687;DHT22;2357;47.316;-1.348;2023-07-30T01:29:22;17.70;99.90
4687;DHT22;2357;47.316;-1.348;2023-07-30T01:31:55;17.80;99.90
4687;DHT22;2357;47.316;-1.348;2023-07-30T01:34:23;17.80;99.90
4687;DHT22;2357;47.316;-1.348;2023-07-30T01:36:49;17.90;99.90
4687;DHT22;2357;47.316;-1.348;2023-07-30T01:39:15;17.90;99.90
4687;DHT22;2357;47.316;-1.348;2023-07-30T01:41:41;17.80;99.90
4687;DHT22;2357;47.316;-1.348;2023-07-30T01:44:07;17.70;99.90
4687;DHT22;2357;47.316;-1.348;2023-07-30T01:46:32;17.80;99.90
4687;DHT22;2357;47.316;-1.348;2023-07-30T01:48:58;17.70;99.90
4687;DHT22;2357;47.316;-1.348;2023-07-30T01:51:24;17.70;99.90
4687;DHT22;2357;47.316;-1.348;2023-07-30T01:53:49;17.70;99.90
4687;DHT22;2357;47.316;-1.348;2023-07-30T01:56:15;17.80;99.90
4687;DHT22;2357;47.316;-1.348;2023-07-30T01:58:40;17.80;99.90
4687;DHT22;2357;47.316;-1.348;2023-07-30T02:01:06;17.60;99.90
4687;DHT22;2357;47.316;-1.348;2023-07-30T02:03:32;17.70;99.90
4687;DHT22;2357;47.316;-1.348;2023-07-30T02:05:57;17.60;99.90
4687;DHT22;2357;47.316;-1.348;2023-07-30T02:08:23;17.60;99.90
4687;DHT22;2357;47.316;-1.348;2023-07-30T02:10:56;17.50;99.90
4687;DHT22;2357;47.316;-1.348;2023-07-30T02:13:22;17.60;99.90
4687;DHT22;2357;47.316;-1.348;2023-07-30T02:15:47;17.60;99.90
4687;DHT22;2357;47.316;-1.348;2023-07-30T02:18:13;17.50;99.90
4687;DHT22;2357;47.316;-1.348;2023-07-30T02:20:38;17.50;99.90
4687;DHT22;2357;47.316;-1.348;2023-07-30T02:23:04;17.50;99.90
4687;DHT22;2357;47.316;-1.348;2023-07-30T02:25:30;17.50;99.90
4687;DHT22;2357;47.316;-1.348;2023-07-30T02:27:56;17.50;99.90
4687;DHT22;2357;47.316;-1.348;2023-07-30T02:30:22;17.40;99.90
4687;DHT22;2357;47.316;-1.348;2023-07-30T02:32:47;17.30;99.90
4687;DHT22;2357;47.316;-1.348;2023-07-30T02:35:13;17.30;99.90
4687;DHT22;2357;47.316;-1.348;2023-07-30T02:37:38;17.30;99.90
4687;DHT22;2357;47.316;-1.348;2023-07-30T02:40:04;17.30;99.90
4687;DHT22;2357;47.316;-1.348;2023-07-30T02:42:31;17.30;99.90
4687;DHT22;2357;47.316;-1.348;2023-07-30T02:44:56;17.30;99.90
4687;DHT22;2357;47.316;-1.348;2023-07-30T02:47:22;17.20;99.90
4687;DHT22;2357;47.316;-1.348;2023-07-30T02:49:48;17.10;99.90
4687;DHT22;2357;47.316;-1.348;2023-07-30T02:52:13;17.10;99.90
4687;DHT22;2357;47.316;-1.348;2023-07-30T02:54:39;17.10;99.90
4687;DHT22;2357;47.316;-1.348;2023-07-30T02:57:05;17.00;99.90
4687;DHT22;2357;47.316;-1.348;2023-07-30T02:59:30;17.10;99.90
4687;DHT22;2357;47.316;-1.348;2023-07-30T03:01:56;17.00;99.90
4687;DHT22;2357;47.316;-1.348;2023-07-30T03:04:22;17.10;99.90
4687;DHT22;2357;47.316;-1.348;2023-07-30T03:06:47;17.00;99.90
4687;DHT22;2357;47.316;-1.348;2023-07-30T03:09:13;17.00;99.90
4687;DHT22;2357;47.316;-1.348;2023-07-30T03:11:38;17.00;99.90
4687;DHT22;2357;47.316;-1.348;2023-07-30T03:14:04;17.10;99.90
4687;DHT22;2357;47.316;-1.348;2023-07-30T03:16:29;17.00;99.90
4687;DHT22;2357;47.316;-1.348;2023-07-30T03:18:55;17.00;99.90
4687;DHT22;2357;47.316;-1.348;2023-07-30T03:21:21;17.00;99.90
4687;DHT22;2357;47.316;-1.348;2023-07-30T03:23:46;16.90;99.90
4687;DHT22;2357;47.316;-1.348;2023-07-30T03:26:13;16.90;99.90
4687;DHT22;2357;47.316;-1.348;2023-07-30T03:28:39;16.90;99.90
4687;DHT22;2357;47.316;-1.348;2023-07-30T03:31:04;16.90;99.90
4687;DHT22;2357;47.316;-1.348;2023-07-30T03:33:31;16.80;99.90
4687;DHT22;2357;47.316;-1.348;2023-07-30T03:35:56;16.80;99.90
4687;DHT22;2357;47.316;-1.348;2023-07-30T03:38:22;16.80;99.90
4687;DHT22;2357;47.316;-1.348;2023-07-30T03:40:47;16.80;99.90
4687;DHT22;2357;47.316;-1.348;2023-07-30T03:43:13;16.90;99.90
4687;DHT22;2357;47.316;-1.348;2023-07-30T03:45:39;16.90;99.90
4687;DHT22;2357;47.316;-1.348;2023-07-30T03:48:04;17.00;99.90
4687;DHT22;2357;47.316;-1.348;2023-07-30T03:50:30;17.00;99.90
4687;DHT22;2357;47.316;-1.348;2023-07-30T03:52:56;17.00;99.90
4687;DHT22;2357;47.316;-1.348;2023-07-30T03:55:22;17.00;99.90
4687;DHT22;2357;47.316;-1.348;2023-07-30T03:57:48;17.00;99.90
4687;DHT22;2357;47.316;-1.348;2023-07-30T04:00:13;17.00;99.90
4687;DHT22;2357;47.316;-1.348;2023-07-30T04:02:39;17.00;99.90
4687;DHT22;2357;47.316;-1.348;2023-07-30T04:05:05;17.00;99.90
4687;DHT22;2357;47.316;-1.348;2023-07-30T04:07:30;17.00;99.90
4687;DHT22;2357;47.316;-1.348;2023-07-30T04:09:56;17.00;99.90
4687;DHT22;2357;47.316;-1.348;2023-07-30T04:12:22;17.00;99.90
4687;DHT22;2357;47.316;-1.348;2023-07-30T04:14:48;17.10;99.90
4687;DHT22;2357;47.316;-1.348;2023-07-30T04:17:14;17.10;99.90
4687;DHT22;2357;47.316;-1.348;2023-07-30T04:19:39;17.00;99.90
4687;DHT22;2357;47.316;-1.348;2023-07-30T04:22:05;17.10;99.90
4687;DHT22;2357;47.316;-1.348;2023-07-30T04:24:30;17.10;99.90
4687;DHT22;2357;47.316;-1.348;2023-07-30T04:26:56;17.10;99.90
4687;DHT22;2357;47.316;-1.348;2023-07-30T04:29:22;17.20;99.90
4687;DHT22;2357;47.316;-1.348;2023-07-30T04:31:47;17.20;99.90
4687;DHT22;2357;47.316;-1.348;2023-07-30T04:34:13;17.20;99.90
4687;DHT22;2357;47.316;-1.348;2023-07-30T04:36:39;17.20;99.90
4687;DHT22;2357;47.316;-1.348;2023-07-30T04:39:04;17.20;99.90
4687;DHT22;2357;47.316;-1.348;2023-07-30T04:41:30;17.20;99.90
4687;DHT22;2357;47.316;-1.348;2023-07-30T04:43:56;17.20;99.90
4687;DHT22;2357;47.316;-1.348;2023-07-30T04:46:21;17.20;99.90
4687;DHT22;2357;47.316;-1.348;2023-07-30T04:48:47;17.20;99.90
4687;DHT22;2357;47.316;-1.348;2023-07-30T04:51:12;17.20;99.90
4687;DHT22;2357;47.316;-1.348;2023-07-30T04:53:38;17.30;99.90
4687;DHT22;2357;47.316;-1.348;2023-07-30T04:56:03;17.30;99.90
4687;DHT22;2357;47.316;-1.348;2023-07-30T04:58:29;17.30;99.90
4687;DHT22;2357;47.316;-1.348;2023-07-30T05:00:55;17.30;99.90
4687;DHT22;2357;47.316;-1.348;2023-07-30T05:03:21;17.30;99.90
4687;DHT22;2357;47.316;-1.348;2023-07-30T05:05:47;17.30;99.90
4687;DHT22;2357;47.316;-1.348;2023-07-30T05:08:12;17.30;99.90
4687;DHT22;2357;47.316;-1.348;2023-07-30T05:10:38;17.30;99.90
4687;DHT22;2357;47.316;-1.348;2023-07-30T05:13:04;17.30;99.90
4687;DHT22;2357;47.316;-1.348;2023-07-30T05:15:29;17.30;99.90
4687;DHT22;2357;47.316;-1.348;2023-07-30T05:17:55;17.30;99.90
4687;DHT22;2357;47.316;-1.348;2023-07-30T05:20:20;17.30;99.90
4687;DHT22;2357;47.316;-1.348;2023-07-30T05:22:46;17.40;99.90
4687;DHT22;2357;47.316;-1.348;2023-07-30T05:25:12;17.30;99.90
4687;DHT22;2357;47.316;-1.348;2023-07-30T05:27:37;17.30;99.90
4687;DHT22;2357;47.316;-1.348;2023-07-30T05:30:03;17.30;99.90
4687;DHT22;2357;47.316;-1.348;2023-07-30T05:32:29;17.30;99.90
4687;DHT22;2357;47.316;-1.348;2023-07-30T05:34:54;17.30;99.90
4687;DHT22;2357;47.316;-1.348;2023-07-30T05:37:20;17.40;99.90
4687;DHT22;2357;47.316;-1.348;2023-07-30T05:39:46;17.40;99.90
4687;DHT22;2357;47.316;-1.348;2023-07-30T05:42:11;17.40;99.90
4687;DHT22;2357;47.316;-1.348;2023-07-30T05:44:37;17.40;99.90
4687;DHT22;2357;47.316;-1.348;2023-07-30T05:47:03;17.50;99.90
4687;DHT22;2357;47.316;-1.348;2023-07-30T05:49:28;17.50;99.90
4687;DHT22;2357;47.316;-1.348;2023-07-30T05:51:54;17.50;99.90
4687;DHT22;2357;47.316;-1.348;2023-07-30T05:54:19;17.60;99.90
4687;DHT22;2357;47.316;-1.348;2023-07-30T05:56:45;17.50;99.90
4687;DHT22;2357;47.316;-1.348;2023-07-30T05:59:11;17.50;99.90
4687;DHT22;2357;47.316;-1.348;2023-07-30T06:01:36;17.60;99.90
4687;DHT22;2357;47.316;-1.348;2023-07-30T06:04:02;17.60;99.90
4687;DHT22;2357;47.316;-1.348;2023-07-30T06:06:28;17.60;99.90
4687;DHT22;2357;47.316;-1.348;2023-07-30T06:08:54;17.70;99.90
4687;DHT22;2357;47.316;-1.348;2023-07-30T06:11:21;17.70;99.90
4687;DHT22;2357;47.316;-1.348;2023-07-30T06:13:46;17.80;99.90
4687;DHT22;2357;47.316;-1.348;2023-07-30T06:16:13;17.80;99.90
4687;DHT22;2357;47.316;-1.348;2023-07-30T06:18:38;17.80;99.90
4687;DHT22;2357;47.316;-1.348;2023-07-30T06:21:04;17.70;99.90
4687;DHT22;2357;47.316;-1.348;2023-07-30T06:23:29;17.80;99.90
4687;DHT22;2357;47.316;-1.348;2023-07-30T06:25:55;17.80;99.90
4687;DHT22;2357;47.316;-1.348;2023-07-30T06:28:21;17.80;99.90
4687;DHT22;2357;47.316;-1.348;2023-07-30T06:30:46;17.70;99.90
4687;DHT22;2357;47.316;-1.348;2023-07-30T06:33:12;17.80;99.90
4687;DHT22;2357;47.316;-1.348;2023-07-30T06:35:38;17.80;99.90
4687;DHT22;2357;47.316;-1.348;2023-07-30T06:38:05;17.80;99.90
4687;DHT22;2357;47.316;-1.348;2023-07-30T06:40:31;17.90;99.90
4687;DHT22;2357;47.316;-1.348;2023-07-30T06:42:56;18.00;99.90
4687;DHT22;2357;47.316;-1.348;2023-07-30T06:45:22;18.10;99.90
4687;DHT22;2357;47.316;-1.348;2023-07-30T06:47:48;18.10;99.90
4687;DHT22;2357;47.316;-1.348;2023-07-30T06:50:13;18.20;99.90
4687;DHT22;2357;47.316;-1.348;2023-07-30T06:52:39;18.30;99.90
4687;DHT22;2357;47.316;-1.348;2023-07-30T06:55:05;18.30;99.90
4687;DHT22;2357;47.316;-1.348;2023-07-30T06:57:30;18.30;99.90
4687;DHT22;2357;47.316;-1.348;2023-07-30T06:59:56;18.30;99.90
4687;DHT22;2357;47.316;-1.348;2023-07-30T07:02:23;18.30;99.90
4687;DHT22;2357;47.316;-1.348;2023-07-30T07:04:49;18.30;99.90
4687;DHT22;2357;47.316;-1.348;2023-07-30T07:07:15;18.40;99.90
4687;DHT22;2357;47.316;-1.348;2023-07-30T07:09:41;18.40;99.90
4687;DHT22;2357;47.316;-1.348;2023-07-30T07:12:07;18.40;99.90
4687;DHT22;2357;47.316;-1.348;2023-07-30T07:14:32;18.30;99.90
4687;DHT22;2357;47.316;-1.348;2023-07-30T07:16:58;18.30;99.90
4687;DHT22;2357;47.316;-1.348;2023-07-30T07:19:23;18.40;99.90
4687;DHT22;2357;47.316;-1.348;2023-07-30T07:21:49;18.50;99.90
4687;DHT22;2357;47.316;-1.348;2023-07-30T07:24:16;18.60;99.90
4687;DHT22;2357;47.316;-1.348;2023-07-30T07:26:41;18.70;99.90
4687;DHT22;2357;47.316;-1.348;2023-07-30T07:29:07;18.60;99.90
4687;DHT22;2357;47.316;-1.348;2023-07-30T07:31:33;18.50;99.90
4687;DHT22;2357;47.316;-1.348;2023-07-30T07:33:58;18.60;99.90
4687;DHT22;2357;47.316;-1.348;2023-07-30T07:36:24;18.70;99.90
4687;DHT22;2357;47.316;-1.348;2023-07-30T07:38:49;18.80;99.90
4687;DHT22;2357;47.316;-1.348;2023-07-30T07:41:16;19.00;99.90
4687;DHT22;2357;47.316;-1.348;2023-07-30T07:43:42;19.10;99.90
4687;DHT22;2357;47.316;-1.348;2023-07-30T07:46:08;19.10;99.90
4687;DHT22;2357;47.316;-1.348;2023-07-30T07:48:39;19.20;99.90
4687;DHT22;2357;47.316;-1.348;2023-07-30T07:51:05;19.20;99.90
4687;DHT22;2357;47.316;-1.348;2023-07-30T07:53:31;19.20;99.90
4687;DHT22;2357;47.316;-1.348;2023-07-30T07:55:57;19.20;99.90
4687;DHT22;2357;47.316;-1.348;2023-07-30T07:58:22;19.10;99.90
4687;DHT22;2357;47.316;-1.348;2023-07-30T08:00:48;19.10;99.90
4687;DHT22;2357;47.316;-1.348;2023-07-30T08:03:13;19.10;99.90
4687;DHT22;2357;47.316;-1.348;2023-07-30T08:05:39;19.30;99.90
4687;DHT22;2357;47.316;-1.348;2023-07-30T08:08:05;19.40;99.90
4687;DHT22;2357;47.316;-1.348;2023-07-30T08:10:30;19.20;99.90
4687;DHT22;2357;47.316;-1.348;2023-07-30T08:12:56;19.20;99.90
4687;DHT22;2357;47.316;-1.348;2023-07-30T08:15:22;19.30;99.90
4687;DHT22;2357;47.316;-1.348;2023-07-30T08:17:47;19.30;99.90
4687;DHT22;2357;47.316;-1.348;2023-07-30T08:20:13;19.40;99.90
4687;DHT22;2357;47.316;-1.348;2023-07-30T08:22:38;19.50;99.90
4687;DHT22;2357;47.316;-1.348;2023-07-30T08:25:04;19.50;99.90
4687;DHT22;2357;47.316;-1.348;2023-07-30T08:27:30;19.60;99.90
4687;DHT22;2357;47.316;-1.348;2023-07-30T08:29:55;19.60;99.90
4687;DHT22;2357;47.316;-1.348;2023-07-30T08:32:21;19.60;99.90
4687;DHT22;2357;47.316;-1.348;2023-07-30T08:34:47;19.70;99.90
4687;DHT22;2357;47.316;-1.348;2023-07-30T08:37:12;19.80;99.90
4687;DHT22;2357;47.316;-1.348;2023-07-30T08:39:38;19.80;99.90
4687;DHT22;2357;47.316;-1.348;2023-07-30T08:42:04;19.80;99.90
4687;DHT22;2357;47.316;-1.348;2023-07-30T08:44:29;20.00;99.90
4687;DHT22;2357;47.316;-1.348;2023-07-30T08:46:55;20.10;99.90
4687;DHT22;2357;47.316;-1.348;2023-07-30T08:49:21;20.00;99.90
4687;DHT22;2357;47.316;-1.348;2023-07-30T08:51:48;20.10;99.90
4687;DHT22;2357;47.316;-1.348;2023-07-30T08:54:17;20.40;99.90
4687;DHT22;2357;47.316;-1.348;2023-07-30T08:56:45;20.50;99.90
4687;DHT22;2357;47.316;-1.348;2023-07-30T08:59:12;20.20;99.90
4687;DHT22;2357;47.316;-1.348;2023-07-30T09:01:39;20.10;99.90
4687;DHT22;2357;47.316;-1.348;2023-07-30T09:04:06;20.10;99.90
4687;DHT22;2357;47.316;-1.348;2023-07-30T09:06:32;20.20;99.90
4687;DHT22;2357;47.316;-1.348;2023-07-30T09:08:58;20.50;99.90
4687;DHT22;2357;47.316;-1.348;2023-07-30T09:11:26;20.80;99.90
4687;DHT22;2357;47.316;-1.348;2023-07-30T09:13:54;21.00;99.90
4687;DHT22;2357;47.316;-1.348;2023-07-30T09:16:24;21.00;99.90
4687;DHT22;2357;47.316;-1.348;2023-07-30T09:18:50;20.70;99.90
4687;DHT22;2357;47.316;-1.348;2023-07-30T09:21:18;20.50;99.90
4687;DHT22;2357;47.316;-1.348;2023-07-30T09:23:46;20.40;99.90
4687;DHT22;2357;47.316;-1.348;2023-07-30T09:26:12;20.10;99.90
4687;DHT22;2357;47.316;-1.348;2023-07-30T09:28:39;19.90;99.90
4687;DHT22;2357;47.316;-1.348;2023-07-30T09:31:07;19.80;99.90
4687;DHT22;2357;47.316;-1.348;2023-07-30T09:33:34;19.70;99.90
4687;DHT22;2357;47.316;-1.348;2023-07-30T09:36:04;20.10;99.90
4687;DHT22;2357;47.316;-1.348;2023-07-30T09:38:30;20.40;99.90
4687;DHT22;2357;47.316;-1.348;2023-07-30T09:41:02;20.70;99.90
4687;DHT22;2357;47.316;-1.348;2023-07-30T09:43:35;20.70;99.90
4687;DHT22;2357;47.316;-1.348;2023-07-30T09:46:03;20.80;99.90
4687;DHT22;2357;47.316;-1.348;2023-07-30T09:48:30;21.10;99.90
4687;DHT22;2357;47.316;-1.348;2023-07-30T09:50:59;21.00;99.90
4687;DHT22;2357;47.316;-1.348;2023-07-30T09:53:25;21.00;99.90
4687;DHT22;2357;47.316;-1.348;2023-07-30T09:55:51;20.70;99.90
4687;DHT22;2357;47.316;-1.348;2023-07-30T09:58:17;20.40;99.90
4687;DHT22;2357;47.316;-1.348;2023-07-30T10:00:44;20.50;99.90
4687;DHT22;2357;47.316;-1.348;2023-07-30T10:03:12;20.70;99.90
4687;DHT22;2357;47.316;-1.348;2023-07-30T10:05:39;21.00;99.90
4687;DHT22;2357;47.316;-1.348;2023-07-30T10:08:09;21.20;99.90
4687;DHT22;2357;47.316;-1.348;2023-07-30T10:10:36;21.30;99.90
4687;DHT22;2357;47.316;-1.348;2023-07-30T10:13:05;21.50;99.90
4687;DHT22;2357;47.316;-1.348;2023-07-30T10:15:35;21.90;99.90
4687;DHT22;2357;47.316;-1.348;2023-07-30T10:18:02;22.30;99.90
4687;DHT22;2357;47.316;-1.348;2023-07-30T10:20:29;22.60;99.90
4687;DHT22;2357;47.316;-1.348;2023-07-30T10:22:58;22.50;99.90
4687;DHT22;2357;47.316;-1.348;2023-07-30T10:25:45;21.90;99.90
4687;DHT22;2357;47.316;-1.348;2023-07-30T10:30:59;21.60;99.90
4687;DHT22;2357;47.316;-1.348;2023-07-30T10:33:53;21.50;99.90
4687;DHT22;2357;47.316;-1.348;2023-07-30T10:36:33;21.10;99.90
4687;DHT22;2357;47.316;-1.348;2023-07-30T10:39:16;21.50;99.90
4687;DHT22;2357;47.316;-1.348;2023-07-30T10:42:00;22.00;99.90
4687;DHT22;2357;47.316;-1.348;2023-07-30T10:44:32;22.50;99.90
4687;DHT22;2357;47.316;-1.348;2023-07-30T10:46:59;22.90;99.90
4687;DHT22;2357;47.316;-1.348;2023-07-30T10:49:26;22.60;99.90
4687;DHT22;2357;47.316;-1.348;2023-07-30T10:51:56;22.50;99.90
4687;DHT22;2357;47.316;-1.348;2023-07-30T10:54:25;21.90;99.90
4687;DHT22;2357;47.316;-1.348;2023-07-30T10:56:51;22.00;99.90
4687;DHT22;2357;47.316;-1.348;2023-07-30T10:59:17;22.00;99.90
4687;DHT22;2357;47.316;-1.348;2023-07-30T11:01:44;22.00;99.90
4687;DHT22;2357;47.316;-1.348;2023-07-30T11:04:15;22.20;99.90
4687;DHT22;2357;47.316;-1.348;2023-07-30T11:06:49;22.30;99.90
4687;DHT22;2357;47.316;-1.348;2023-07-30T11:09:21;22.30;99.90
4687;DHT22;2357;47.316;-1.348;2023-07-30T11:11:47;22.10;99.90
4687;DHT22;2357;47.316;-1.348;2023-07-30T11:14:21;22.30;99.90
4687;DHT22;2357;47.316;-1.348;2023-07-30T11:16:53;22.10;99.90
4687;DHT22;2357;47.316;-1.348;2023-07-30T11:19:19;22.20;99.90
4687;DHT22;2357;47.316;-1.348;2023-07-30T11:21:46;22.40;99.90
4687;DHT22;2357;47.316;-1.348;2023-07-30T11:24:11;22.50;99.90
4687;DHT22;2357;47.316;-1.348;2023-07-30T11:26:37;22.30;99.90
4687;DHT22;2357;47.316;-1.348;2023-07-30T11:29:14;22.40;99.90
4687;DHT22;2357;47.316;-1.348;2023-07-30T11:31:41;22.50;99.90
4687;DHT22;2357;47.316;-1.348;2023-07-30T11:34:07;22.80;99.90
4687;DHT22;2357;47.316;-1.348;2023-07-30T11:36:33;22.90;99.90
4687;DHT22;2357;47.316;-1.348;2023-07-30T11:38:59;23.00;99.90
4687;DHT22;2357;47.316;-1.348;2023-07-30T11:41:26;23.00;99.90
4687;DHT22;2357;47.316;-1.348;2023-07-30T11:43:51;23.10;99.90
4687;DHT22;2357;47.316;-1.348;2023-07-30T11:46:18;23.10;99.90
4687;DHT22;2357;47.316;-1.348;2023-07-30T11:48:50;23.50;99.90
4687;DHT22;2357;47.316;-1.348;2023-07-30T11:51:22;23.40;99.90
4687;DHT22;2357;47.316;-1.348;2023-07-30T11:53:57;23.60;99.90
4687;DHT22;2357;47.316;-1.348;2023-07-30T11:58:51;23.30;99.90
4687;DHT22;2357;47.316;-1.348;2023-07-30T12:01:18;23.30;99.90
4687;DHT22;2357;47.316;-1.348;2023-07-30T12:03:44;23.10;99.90
4687;DHT22;2357;47.316;-1.348;2023-07-30T12:06:10;23.10;99.90
4687;DHT22;2357;47.316;-1.348;2023-07-30T12:08:36;23.80;99.90
4687;DHT22;2357;47.316;-1.348;2023-07-30T12:11:09;24.10;99.90
4687;DHT22;2357;47.316;-1.348;2023-07-30T12:13:42;24.00;99.90
4687;DHT22;2357;47.316;-1.348;2023-07-30T12:16:10;23.90;99.90
4687;DHT22;2357;47.316;-1.348;2023-07-30T12:18:37;23.80;99.90
4687;DHT22;2357;47.316;-1.348;2023-07-30T12:21:03;23.90;99.90
4687;DHT22;2357;47.316;-1.348;2023-07-30T12:23:32;24.20;99.90
4687;DHT22;2357;47.316;-1.348;2023-07-30T12:25:57;24.90;99.90
4687;DHT22;2357;47.316;-1.348;2023-07-30T12:28:23;24.70;99.90
4687;DHT22;2357;47.316;-1.348;2023-07-30T12:30:49;24.40;99.90
4687;DHT22;2357;47.316;-1.348;2023-07-30T12:33:14;24.60;99.90
4687;DHT22;2357;47.316;-1.348;2023-07-30T12:35:40;24.70;99.90
4687;DHT22;2357;47.316;-1.348;2023-07-30T12:38:05;24.90;99.90
4687;DHT22;2357;47.316;-1.348;2023-07-30T12:40:31;25.10;99.90
4687;DHT22;2357;47.316;-1.348;2023-07-30T12:43:01;25.10;99.90
4687;DHT22;2357;47.316;-1.348;2023-07-30T12:45:27;25.20;99.90
4687;DHT22;2357;47.316;-1.348;2023-07-30T12:47:52;25.00;99.90
4687;DHT22;2357;47.316;-1.348;2023-07-30T12:50:18;25.10;99.90
4687;DHT22;2357;47.316;-1.348;2023-07-30T12:52:44;24.60;99.90
4687;DHT22;2357;47.316;-1.348;2023-07-30T12:55:09;24.30;99.90
4687;DHT22;2357;47.316;-1.348;2023-07-30T12:57:35;24.20;99.90
4687;DHT22;2357;47.316;-1.348;2023-07-30T13:00:02;24.60;99.90
4687;DHT22;2357;47.316;-1.348;2023-07-30T13:02:29;25.30;99.90
4687;DHT22;2357;47.316;-1.348;2023-07-30T13:04:54;25.00;99.90
4687;DHT22;2357;47.316;-1.348;2023-07-30T13:07:20;25.40;99.90
4687;DHT22;2357;47.316;-1.348;2023-07-30T13:09:46;24.60;99.90
4687;DHT22;2357;47.316;-1.348;2023-07-30T13:12:12;24.50;99.90
4687;DHT22;2357;47.316;-1.348;2023-07-30T13:14:38;24.40;99.90
4687;DHT22;2357;47.316;-1.348;2023-07-30T13:17:04;24.30;99.90
4687;DHT22;2357;47.316;-1.348;2023-07-30T13:19:29;24.20;99.90
4687;DHT22;2357;47.316;-1.348;2023-07-30T13:21:57;24.10;99.90
4687;DHT22;2357;47.316;-1.348;2023-07-30T13:24:23;24.20;99.90
4687;DHT22;2357;47.316;-1.348;2023-07-30T13:26:48;23.90;99.90
4687;DHT22;2357;47.316;-1.348;2023-07-30T13:29:14;24.00;99.90
4687;DHT22;2357;47.316;-1.348;2023-07-30T13:31:39;23.90;99.90
4687;DHT22;2357;47.316;-1.348;2023-07-30T13:34:05;23.80;99.90
4687;DHT22;2357;47.316;-1.348;2023-07-30T13:36:31;24.20;99.90
4687;DHT22;2357;47.316;-1.348;2023-07-30T13:38:56;24.20;99.90
4687;DHT22;2357;47.316;-1.348;2023-07-30T13:41:22;23.90;99.90
4687;DHT22;2357;47.316;-1.348;2023-07-30T13:43:47;23.90;99.90
4687;DHT22;2357;47.316;-1.348;2023-07-30T13:46:13;23.90;99.90
4687;DHT22;2357;47.316;-1.348;2023-07-30T13:48:38;23.80;99.90
4687;DHT22;2357;47.316;-1.348;2023-07-30T13:51:04;24.10;99.90
4687;DHT22;2357;47.316;-1.348;2023-07-30T13:53:29;24.20;99.90
4687;DHT22;2357;47.316;-1.348;2023-07-30T13:55:55;25.00;99.90
4687;DHT22;2357;47.316;-1.348;2023-07-30T13:58:21;24.90;99.90
4687;DHT22;2357;47.316;-1.348;2023-07-30T14:00:46;24.80;99.90
4687;DHT22;2357;47.316;-1.348;2023-07-30T14:03:12;24.60;99.90
4687;DHT22;2357;47.316;-1.348;2023-07-30T14:05:38;24.50;99.90
4687;DHT22;2357;47.316;-1.348;2023-07-30T14:08:04;24.40;99.90
4687;DHT22;2357;47.316;-1.348;2023-07-30T14:10:30;25.10;99.90
4687;DHT22;2357;47.316;-1.348;2023-07-30T14:12:55;26.00;99.90
4687;DHT22;2357;47.316;-1.348;2023-07-30T14:15:21;26.20;99.90
4687;DHT22;2357;47.316;-1.348;2023-07-30T14:17:46;26.50;99.90
4687;DHT22;2357;47.316;-1.348;2023-07-30T14:20:12;25.70;99.90
4687;DHT22;2357;47.316;-1.348;2023-07-30T14:22:38;25.70;99.90
4687;DHT22;2357;47.316;-1.348;2023-07-30T14:25:04;25.70;99.90
4687;DHT22;2357;47.316;-1.348;2023-07-30T14:27:29;25.50;99.90
4687;DHT22;2357;47.316;-1.348;2023-07-30T14:29:55;26.00;99.90
4687;DHT22;2357;47.316;-1.348;2023-07-30T14:32:21;26.30;99.90
4687;DHT22;2357;47.316;-1.348;2023-07-30T14:34:47;26.60;99.90
4687;DHT22;2357;47.316;-1.348;2023-07-30T14:37:12;26.80;99.90
4687;DHT22;2357;47.316;-1.348;2023-07-30T14:39:38;26.60;99.90
4687;DHT22;2357;47.316;-1.348;2023-07-30T14:42:05;26.80;99.90
4687;DHT22;2357;47.316;-1.348;2023-07-30T14:44:31;26.80;99.90
4687;DHT22;2357;47.316;-1.348;2023-07-30T14:46:57;27.00;99.90
4687;DHT22;2357;47.316;-1.348;2023-07-30T14:49:23;26.50;99.90
4687;DHT22;2357;47.316;-1.348;2023-07-30T14:51:49;26.80;99.90
4687;DHT22;2357;47.316;-1.348;2023-07-30T14:54:17;26.80;99.90
4687;DHT22;2357;47.316;-1.348;2023-07-30T14:56:43;26.80;99.90
4687;DHT22;2357;47.316;-1.348;2023-07-30T14:59:09;26.70;99.90
4687;DHT22;2357;47.316;-1.348;2023-07-30T15:01:35;27.30;99.90
4687;DHT22;2357;47.316;-1.348;2023-07-30T15:04:01;27.30;99.90
4687;DHT22;2357;47.316;-1.348;2023-07-30T15:06:26;27.20;99.90
4687;DHT22;2357;47.316;-1.348;2023-07-30T15:08:55;27.00;99.90
4687;DHT22;2357;47.316;-1.348;2023-07-30T15:11:20;26.10;99.90
4687;DHT22;2357;47.316;-1.348;2023-07-30T15:13:46;26.60;99.90
4687;DHT22;2357;47.316;-1.348;2023-07-30T15:16:12;27.00;99.90
4687;DHT22;2357;47.316;-1.348;2023-07-30T15:18:37;26.70;99.90
4687;DHT22;2357;47.316;-1.348;2023-07-30T15:21:03;27.20;99.90
4687;DHT22;2357;47.316;-1.348;2023-07-30T15:23:29;27.50;99.90
4687;DHT22;2357;47.316;-1.348;2023-07-30T15:25:54;26.80;99.90
4687;DHT22;2357;47.316;-1.348;2023-07-30T15:28:20;26.30;99.90
4687;DHT22;2357;47.316;-1.348;2023-07-30T15:30:46;26.40;99.90
4687;DHT22;2357;47.316;-1.348;2023-07-30T15:33:12;27.10;99.90
4687;DHT22;2357;47.316;-1.348;2023-07-30T15:35:38;27.00;99.90
4687;DHT22;2357;47.316;-1.348;2023-07-30T15:38:07;26.60;99.90
4687;DHT22;2357;47.316;-1.348;2023-07-30T15:40:33;26.00;99.90
4687;DHT22;2357;47.316;-1.348;2023-07-30T15:43:03;25.60;99.90
4687;DHT22;2357;47.316;-1.348;2023-07-30T15:45:29;26.10;99.90